Time;durP1;ratioP1;P1;durP2;ratioP2;P2;SDS_P1;SDS_P2;PMS_P1;PMS_P2;Temp;Humidity;BMP_temperature;BMP_pressure;BME280_temperature;BME280_humidity;BME280_pressure;Samples;Min_cycle;Max_cycle;Signal;HPM_P1;HPM_P2
2022/02/10 00:22:22;;;;;;;13.77;8.27;;;9.40;78.90;;;;;;5093271;28;20017;-69
2022/02/10 00:34:12;;;;;;;14.95;8.85;;;9.50;78.80;;;;;;5098468;28;20832;-69
2022/02/10 00:38:15;;;;;;;14.15;9.48;;;9.50;78.50;;;;;;5107554;28;20625;-69
2022/02/10 00:40:41;;;;;;;12.43;8.65;;;9.40;78.40;;;;;;5125851;27;20114;-69
2022/02/10 00:43:07;;;;;;;15.35;9.57;;;9.40;78.30;;;;;;5094701;28;20131;-69
2022/02/10 00:45:34;;;;;;;12.38;8.15;;;9.40;78.90;;;;;;5096800;28;20500;-69
2022/02/10 00:48:03;;;;;;;12.18;8.38;;;9.50;79.20;;;;;;5096812;28;20169;-69
2022/02/10 00:50:30;;;;;;;12.95;8.25;;;9.50;78.70;;;;;;5096982;28;20043;-69
2022/02/10 00:53:06;;;;;;;13.98;8.77;;;9.50;78.80;;;;;;5093005;28;20519;-69
2022/02/10 00:55:34;;;;;;;13.13;8.52;;;9.60;78.90;;;;;;5101920;28;20024;-68
2022/02/10 00:58:04;;;;;;;12.05;7.93;;;9.60;78.70;;;;;;5097016;28;20032;-69
2022/02/10 01:12:23;;;;;;;11.20;6.72;;;9.60;78.40;;;;;;5093877;28;20145;-69
2022/02/10 01:14:29;;;;;;;8.68;6.68;;;9.60;78.30;;;;;;5098892;27;20044;-69
2022/02/10 01:30:11;;;;;;;10.38;7.50;;;9.60;78.60;;;;;;5097202;28;20082;-69
2022/02/10 01:32:37;;;;;;;12.23;7.93;;;9.60;78.40;;;;;;5097016;28;20417;-69
2022/02/10 01:35:06;;;;;;;11.13;6.45;;;9.60;78.70;;;;;;5074889;28;20489;-69
2022/02/10 01:37:31;;;;;;;12.95;7.10;;;9.60;78.60;;;;;;5099177;28;20024;-69
2022/02/10 01:40:07;;;;;;;10.25;6.60;;;9.60;78.50;;;;;;5096891;28;20403;-69
2022/02/10 02:04:21;;;;;;;8.85;6.05;;;9.60;78.40;;;;;;5096643;28;20062;-68
2022/02/10 02:06:50;;;;;;;9.15;6.05;;;9.60;78.20;;;;;;5096680;28;20062;-69
2022/02/10 02:09:17;;;;;;;8.95;6.03;;;9.60;78.30;;;;;;5096228;28;20111;-69
2022/02/10 02:11:46;;;;;;;8.40;6.35;;;9.60;78.20;;;;;;5095769;28;20031;-69
2022/02/10 02:14:20;;;;;;;9.93;5.97;;;9.60;78.10;;;;;;5091468;28;20432;-69
2022/02/10 02:16:50;;;;;;;10.45;6.13;;;9.60;78.20;;;;;;5087163;28;20028;-68
2022/02/10 02:19:16;;;;;;;8.30;5.32;;;9.60;78.20;;;;;;5096349;28;20473;-69
2022/02/10 02:21:43;;;;;;;8.57;5.88;;;9.50;77.80;;;;;;5096070;28;20039;-68
2022/02/10 02:24:13;;;;;;;11.15;6.70;;;9.50;78.10;;;;;;5097137;28;20028;-68
2022/02/10 02:26:43;;;;;;;7.30;5.63;;;9.50;78.40;;;;;;5088822;28;20574;-69
2022/02/10 02:29:11;;;;;;;9.70;6.40;;;9.50;78.40;;;;;;5075934;28;20020;-68
2022/02/10 02:31:43;;;;;;;9.15;6.57;;;9.60;78.30;;;;;;5097278;28;20020;-69
2022/02/10 02:39:48;;;;;;;10.40;6.28;;;9.60;78.30;;;;;;5095656;28;20019;-69
2022/02/10 03:04:41;;;;;;;8.20;5.65;;;9.70;77.90;;;;;;5094381;28;20051;-68
2022/02/10 03:07:10;;;;;;;9.77;6.28;;;9.70;77.80;;;;;;5095062;28;20028;-69
2022/02/10 03:09:42;;;;;;;9.27;6.35;;;9.70;77.60;;;;;;5076918;28;20032;-68
2022/02/10 03:12:09;;;;;;;7.18;5.43;;;9.60;77.90;;;;;;5076979;28;20028;-68
2022/02/10 03:14:43;;;;;;;7.22;5.10;;;9.70;77.60;;;;;;5093094;28;20052;-68
2022/02/10 03:19:53;;;;;;;6.93;4.85;;;9.70;77.50;;;;;;5096940;28;20068;-68
2022/02/10 04:11:13;;;;;;;7.00;5.03;;;9.70;77.20;;;;;;5092341;28;20492;-68
2022/02/10 04:13:56;;;;;;;7.80;4.97;;;9.70;77.30;;;;;;5104500;28;20031;-69
2022/02/10 04:16:30;;;;;;;9.10;5.65;;;9.70;77.10;;;;;;5095118;28;20542;-69
2022/02/10 04:27:05;;;;;;;7.03;5.15;;;9.70;77.00;;;;;;5094410;28;20077;-69
2022/02/10 04:32:38;;;;;;;6.95;4.72;;;9.70;77.00;;;;;;5074880;28;20035;-69
2022/02/10 04:41:33;;;;;;;7.43;5.22;;;9.70;76.90;;;;;;5095643;28;20028;-69
2022/02/10 04:53:23;;;;;;;6.30;4.53;;;9.60;76.80;;;;;;5094193;28;20060;-69
2022/02/10 05:01:31;;;;;;;6.40;4.82;;;9.60;76.40;;;;;;5095634;28;20024;-69
2022/02/10 05:23:53;;;;;;;5.97;3.85;;;9.60;76.50;;;;;;4957759;28;20109;-69
2022/02/10 05:33:47;;;;;;;6.28;3.58;;;9.60;76.50;;;;;;4962036;28;20086;-69
2022/02/10 05:36:16;;;;;;;5.85;4.22;;;9.70;76.90;;;;;;4961998;28;20031;-68
2022/02/10 05:38:54;;;;;;;8.30;5.75;;;9.60;76.50;;;;;;4962068;28;20062;-68
2022/02/10 05:57:17;;;;;;;5.50;3.97;;;9.80;76.50;;;;;;5071964;28;20036;-69
2022/02/10 06:00:06;;;;;;;7.90;4.95;;;9.80;76.20;;;;;;5097054;28;20039;-69
2022/02/10 06:39:51;;;;;;;4.65;3.50;;;9.70;76.10;;;;;;5050902;28;20072;-69
2022/02/10 06:54:13;;;;;;;4.93;3.53;;;9.80;75.60;;;;;;5095936;28;20019;-69
2022/02/10 07:05:09;;;;;;;6.07;3.95;;;9.80;76.60;;;;;;5105399;28;20038;-69
2022/02/10 07:16:22;;;;;;;5.47;3.40;;;9.70;76.10;;;;;;5095027;28;20291;-68
2022/02/10 09:16:48;;;;;;;3.50;2.83;;;11.90;73.60;;;;;;5002354;28;20078;-69
2022/02/10 09:19:32;;;;;;;4.38;2.90;;;12.20;73.70;;;;;;5014068;28;20038;-70
2022/02/10 10:00:36;;;;;;;2.95;2.17;;;14.20;70.70;;;;;;5079452;28;20209;-71
2022/02/10 10:03:11;;;;;;;4.72;2.53;;;14.40;69.60;;;;;;5081133;28;20040;-70
2022/02/10 10:05:46;;;;;;;5.00;2.40;;;14.40;69.00;;;;;;5080879;28;20055;-70
2022/02/10 10:14:07;;;;;;;6.30;2.67;;;14.30;69.50;;;;;;5039371;28;20048;-71
2022/02/10 10:16:45;;;;;;;3.80;2.22;;;14.60;69.80;;;;;;5040395;28;20041;-73
2022/02/10 10:19:26;;;;;;;3.95;2.10;;;14.70;67.40;;;;;;5034323;28;20075;-68
2022/02/10 10:22:08;;;;;;;3.72;2.53;;;14.70;68.00;;;;;;5038654;28;20489;-67
2022/02/10 10:24:51;;;;;;;7.05;4.07;;;15.10;70.20;;;;;;5036714;28;20107;-67
2022/02/10 10:27:42;;;;;;;;;;;16.00;68.90;;;;;;5040242;28;20044;-68
2022/02/10 10:52:06;;;;;;;5.50;2.55;;;16.40;66.00;;;;;;5041880;28;20032;-66
2022/02/10 10:57:34;;;;;;;3.35;2.22;;;16.30;64.90;;;;;;5042609;28;20067;-66
2022/02/10 11:23:46;;;;;;;4.60;2.22;;;16.30;62.60;;;;;;5079442;28;20031;-72
2022/02/10 11:42:25;;;;;;;4.03;1.92;;;17.10;66.30;;;;;;5077384;28;20066;-74
2022/02/10 13:23:21;;;;;;;2.05;1.33;;;16.50;58.40;;;;;;5008327;28;20045;-69
2022/02/10 13:35:34;;;;;;;1.60;1.20;;;14.80;62.10;;;;;;5092121;28;20395;-64
2022/02/10 14:13:08;;;;;;;1.73;1.10;;;15.30;63.20;;;;;;5087360;28;20067;-63
2022/02/10 14:28:05;;;;;;;1.42;0.60;;;14.40;61.60;;;;;;5086461;28;20039;-63
2022/02/10 14:30:33;;;;;;;0.80;0.32;;;13.70;63.20;;;;;;5084982;28;20020;-64
2022/02/10 14:32:59;;;;;;;0.90;0.47;;;13.20;64.30;;;;;;5085267;28;20031;-64
2022/02/10 14:41:33;;;;;;;0.80;0.50;;;12.30;67.60;;;;;;5087666;28;20087;-63
2022/02/10 15:28:44;;;;;;;0.55;0.30;;;11.40;70.70;;;;;;5080695;28;20094;-64
2022/02/10 16:18:03;;;;;;;1.73;0.50;;;10.90;71.70;;;;;;5033638;28;20567;-64
2022/02/10 16:20:30;;;;;;;1.10;0.43;;;10.70;71.30;;;;;;5031543;28;22185;-64
2022/02/10 16:23:02;;;;;;;1.23;0.50;;;10.70;72.40;;;;;;5041545;28;20134;-64
2022/02/10 16:25:32;;;;;;;1.48;0.63;;;10.70;72.30;;;;;;5043546;28;20037;-64
2022/02/10 16:28:25;;;;;;;0.82;0.43;;;10.80;72.80;;;;;;5044613;28;20027;-64
2022/02/10 16:30:44;;;;;;;2.45;0.50;;;10.70;72.00;;;;;;5043579;28;20051;-65
2022/02/10 16:33:10;;;;;;;2.38;0.75;;;10.70;72.20;;;;;;5024241;28;20498;-64
2022/02/10 16:35:35;;;;;;;1.52;0.52;;;10.70;72.50;;;;;;5027867;28;20050;-64
2022/02/10 16:38:02;;;;;;;2.05;0.63;;;10.70;72.50;;;;;;5045746;28;20037;-62
2022/02/10 16:40:27;;;;;;;1.83;0.47;;;10.70;72.80;;;;;;5046375;28;20033;-62
2022/02/10 16:42:53;;;;;;;0.95;0.50;;;10.60;72.90;;;;;;5044446;28;20033;-62
2022/02/10 16:45:19;;;;;;;1.90;0.80;;;10.60;73.70;;;;;;5045291;28;20074;-62
2022/02/10 16:47:45;;;;;;;0.70;0.40;;;10.60;73.30;;;;;;5046187;28;20115;-63
2022/02/10 16:50:11;;;;;;;2.35;0.50;;;10.60;73.70;;;;;;5041906;28;20857;-62
2022/02/10 16:52:43;;;;;;;2.53;0.57;;;10.50;73.50;;;;;;5042799;28;20390;-62
2022/02/10 17:03:12;;;;;;;1.15;0.50;;;10.30;73.60;;;;;;5085516;28;20063;-63
2022/02/10 17:19:11;;;;;;;0.98;0.40;;;10.10;74.10;;;;;;5027984;28;20422;-70
2022/02/10 17:27:28;;;;;;;1.67;0.47;;;10.20;74.00;;;;;;5028988;28;20132;-68
2022/02/10 17:33:08;;;;;;;2.80;0.40;;;10.10;73.50;;;;;;5030446;28;20041;-68
2022/02/10 17:35:33;;;;;;;0.93;0.50;;;10.10;74.20;;;;;;5015164;28;20030;-68
2022/02/10 17:46:06;;;;;;;1.50;0.52;;;10.00;74.30;;;;;;5082444;28;20042;-68
2022/02/10 17:53:54;;;;;;;1.95;0.55;;;10.10;74.30;;;;;;5090434;28;20047;-65
2022/02/10 17:56:20;;;;;;;1.15;0.60;;;10.10;74.00;;;;;;5057319;28;20485;-67
2022/02/10 17:58:46;;;;;;;1.40;0.60;;;10.00;73.80;;;;;;5106534;28;20095;-65
2022/02/10 18:01:12;;;;;;;1.67;0.70;;;10.00;73.80;;;;;;5079147;28;20115;-69
2022/02/10 18:03:38;;;;;;;1.85;0.80;;;10.00;73.80;;;;;;5078423;28;20048;-68
2022/02/10 18:14:30;;;;;;;1.92;0.90;;;10.20;73.10;;;;;;5072283;28;20068;-67
2022/02/10 18:16:52;;;;;;;1.67;0.65;;;10.10;73.20;;;;;;5099671;28;20035;-67
2022/02/10 18:19:31;;;;;;;1.08;0.43;;;10.10;73.20;;;;;;5074078;28;20035;-67
2022/02/10 18:30:21;;;;;;;1.15;0.63;;;10.20;73.00;;;;;;5091514;28;20032;-68
2022/02/10 18:54:36;;;;;;;1.63;1.13;;;10.00;73.30;;;;;;5082904;28;20412;-68
2022/02/10 19:03:39;;;;;;;2.53;0.90;;;9.70;72.90;;;;;;5080107;28;20023;-68
2022/02/10 19:08:18;;;;;;;2.40;0.90;;;9.70;73.30;;;;;;5077381;28;20020;-67
2022/02/10 19:10:46;;;;;;;2.42;1.30;;;9.60;73.10;;;;;;5072025;28;20082;-67
2022/02/10 19:13:15;;;;;;;2.25;1.17;;;9.60;73.40;;;;;;5087141;28;20023;-67
2022/02/10 19:15:41;;;;;;;1.85;1.10;;;9.60;73.70;;;;;;5094200;28;20450;-67
2022/02/10 19:18:09;;;;;;;1.90;1.20;;;9.60;74.40;;;;;;5102322;28;20024;-67
2022/02/10 19:20:39;;;;;;;1.80;1.10;;;9.60;73.60;;;;;;5093149;28;20038;-68
2022/02/10 19:23:06;;;;;;;2.38;1.25;;;9.60;74.20;;;;;;5091236;28;20051;-67
2022/02/10 19:25:36;;;;;;;2.65;1.58;;;9.60;73.80;;;;;;5096262;28;20090;-68
2022/02/10 19:28:02;;;;;;;2.20;1.45;;;9.60;73.50;;;;;;5094793;28;20467;-68
2022/02/10 19:30:29;;;;;;;2.03;1.30;;;9.60;74.20;;;;;;5093607;28;20088;-68
2022/02/10 19:32:59;;;;;;;3.47;1.70;;;9.60;74.20;;;;;;5094604;28;20055;-67
2022/02/10 19:35:27;;;;;;;2.58;1.27;;;9.60;73.90;;;;;;5092542;28;20123;-67
2022/02/10 19:37:58;;;;;;;3.00;1.50;;;9.60;74.10;;;;;;5105748;28;20038;-67
2022/02/10 19:40:29;;;;;;;2.83;1.40;;;9.60;74.00;;;;;;5095464;28;20615;-67
2022/02/10 19:42:56;;;;;;;2.95;1.67;;;9.70;74.10;;;;;;5102207;28;20023;-67
2022/02/10 19:45:23;;;;;;;2.50;1.60;;;9.70;73.70;;;;;;5100688;28;20507;-67
2022/02/10 19:47:50;;;;;;;4.13;1.65;;;9.60;73.70;;;;;;5094796;28;20030;-68
2022/02/10 19:50:22;;;;;;;2.97;1.52;;;9.60;74.00;;;;;;5090903;28;20036;-68
2022/02/10 19:52:49;;;;;;;2.38;1.50;;;9.60;74.20;;;;;;5093772;28;20012;-67
2022/02/10 19:55:20;;;;;;;2.60;1.70;;;9.60;74.20;;;;;;5095780;28;20532;-68
2022/02/10 19:57:47;;;;;;;3.65;1.95;;;9.60;74.10;;;;;;5094743;28;20443;-68
2022/02/10 20:00:19;;;;;;;4.32;2.00;;;9.60;74.10;;;;;;5089762;28;20040;-68
2022/02/10 20:02:45;;;;;;;3.30;1.92;;;9.60;74.20;;;;;;5103022;28;20445;-67
2022/02/10 20:05:10;;;;;;;5.30;2.10;;;9.60;74.20;;;;;;5089659;28;20057;-68
2022/02/10 20:07:41;;;;;;;4.68;2.05;;;9.50;74.40;;;;;;5096641;28;20445;-67
2022/02/10 20:10:08;;;;;;;6.10;2.40;;;9.60;74.20;;;;;;5091621;28;20078;-67
2022/02/10 20:12:37;;;;;;;3.88;2.35;;;9.60;74.20;;;;;;5094402;28;20111;-68
2022/02/10 20:15:03;;;;;;;4.55;2.50;;;9.50;74.10;;;;;;5094003;28;20040;-68
2022/02/10 20:17:28;;;;;;;5.43;2.35;;;9.50;74.10;;;;;;5092678;28;20565;-67
2022/02/10 20:19:54;;;;;;;3.33;2.35;;;9.40;74.10;;;;;;5090888;28;20070;-67
2022/02/10 20:22:20;;;;;;;3.80;2.17;;;9.40;74.30;;;;;;5095533;28;20503;-68
2022/02/10 20:24:46;;;;;;;5.50;2.60;;;9.40;75.40;;;;;;5076071;28;20036;-68
2022/02/10 20:27:11;;;;;;;5.22;2.95;;;9.30;74.40;;;;;;5091738;28;20032;-68
2022/02/10 20:29:37;;;;;;;5.05;2.60;;;9.30;74.60;;;;;;5092670;28;20031;-67
2022/02/10 20:32:03;;;;;;;4.63;2.42;;;9.30;74.60;;;;;;5089977;28;20024;-67
2022/02/10 20:34:31;;;;;;;4.22;2.88;;;9.30;74.50;;;;;;5095988;28;20366;-67
2022/02/10 20:36:59;;;;;;;5.20;2.80;;;9.20;74.30;;;;;;5099893;28;20063;-67
2022/02/10 20:39:28;;;;;;;3.65;2.90;;;9.20;74.60;;;;;;5099589;28;20028;-69
2022/02/10 20:42:02;;;;;;;4.50;2.95;;;9.30;74.60;;;;;;5090958;28;20023;-66
2022/02/10 20:44:28;;;;;;;4.18;3.00;;;9.20;74.50;;;;;;5095862;28;20040;-67
2022/02/10 20:46:54;;;;;;;5.10;2.80;;;9.30;74.30;;;;;;5095738;28;20031;-67
2022/02/10 20:49:22;;;;;;;4.47;3.05;;;9.30;75.30;;;;;;5099784;28;20016;-67
2022/02/10 20:51:51;;;;;;;4.15;2.60;;;9.30;74.20;;;;;;5093557;28;20024;-66
2022/02/10 20:54:18;;;;;;;4.85;3.10;;;9.30;74.40;;;;;;5094702;28;20028;-66
2022/02/10 20:56:45;;;;;;;6.10;3.38;;;9.30;75.40;;;;;;5088715;28;20036;-66
2022/02/10 20:59:27;;;;;;;6.10;3.42;;;9.30;74.60;;;;;;5091945;28;20095;-66
2022/02/10 21:02:09;;;;;;;5.57;3.65;;;9.20;74.60;;;;;;5093860;28;20103;-66
2022/02/10 21:05:26;;;;;;;9.60;3.88;;;9.20;74.10;;;;;;5097833;28;20052;-66
2022/02/10 21:07:37;;;;;;;6.88;4.38;;;9.10;74.50;;;;;;5083768;28;20123;-66
2022/02/10 21:10:10;;;;;;;7.53;4.88;;;9.10;74.30;;;;;;5075691;28;20111;-66
2022/02/10 21:12:38;;;;;;;6.87;4.33;;;9.00;74.50;;;;;;5092321;28;20020;-66
2022/02/10 21:15:08;;;;;;;7.15;4.40;;;9.10;74.70;;;;;;5073845;28;20039;-66
2022/02/10 21:17:33;;;;;;;7.25;4.63;;;9.00;74.70;;;;;;5091475;28;20020;-66
2022/02/10 21:20:02;;;;;;;6.05;4.05;;;9.00;74.90;;;;;;5091887;28;20029;-66
2022/02/10 21:22:32;;;;;;;6.47;4.10;;;9.00;74.90;;;;;;5093325;28;20020;-66
2022/02/10 21:25:07;;;;;;;5.78;3.90;;;8.90;74.90;;;;;;5091084;28;20093;-66
2022/02/10 21:27:46;;;;;;;5.45;4.10;;;8.90;75.00;;;;;;5092727;28;20028;-66
2022/02/10 21:30:16;;;;;;;5.38;3.95;;;8.80;75.00;;;;;;5091861;28;20107;-66
2022/02/10 21:33:02;;;;;;;6.68;4.32;;;8.80;75.00;;;;;;5093012;28;20024;-65
2022/02/10 21:38:23;;;;;;;4.93;3.60;;;8.70;75.30;;;;;;5010962;28;20029;-66
2022/02/10 21:44:34;;;;;;;5.30;4.07;;;8.70;75.10;;;;;;5011433;28;20042;-66
2022/02/10 22:00:26;;;;;;;6.57;3.40;;;8.50;75.00;;;;;;5009246;28;20156;-65
2022/02/10 22:21:05;;;;;;;5.03;3.95;;;8.40;75.10;;;;;;5092224;28;20024;-66
2022/02/10 22:23:33;;;;;;;5.35;4.13;;;8.30;75.10;;;;;;5092420;28;20035;-66
2022/02/10 22:26:02;;;;;;;5.68;3.78;;;8.30;75.40;;;;;;5091416;28;20055;-66
2022/02/10 22:28:49;;;;;;;5.75;4.07;;;8.30;75.40;;;;;;5097902;28;20024;-66
2022/02/10 22:36:28;;;;;;;6.22;4.30;;;8.30;75.20;;;;;;5090890;28;20028;-66
2022/02/10 22:39:00;;;;;;;7.03;4.05;;;8.40;75.50;;;;;;5090792;28;20027;-66
2022/02/10 22:41:25;;;;;;;6.28;4.28;;;8.50;75.50;;;;;;5091170;28;20020;-66
2022/02/10 22:43:52;;;;;;;6.35;4.55;;;8.50;75.20;;;;;;5094347;28;20457;-66
2022/02/10 22:46:20;;;;;;;10.63;5.78;;;8.60;75.00;;;;;;5095551;28;20111;-66
2022/02/10 22:48:48;;;;;;;6.50;4.15;;;8.40;74.80;;;;;;5095942;28;20103;-66
2022/02/10 22:51:15;;;;;;;6.97;4.47;;;8.40;75.10;;;;;;5095791;28;20496;-65
2022/02/10 22:53:41;;;;;;;6.70;4.35;;;8.50;75.10;;;;;;5095454;28;20036;-66
2022/02/10 22:56:11;;;;;;;7.15;4.15;;;8.40;74.70;;;;;;5091415;28;20016;-66
2022/02/10 22:58:39;;;;;;;6.72;4.00;;;8.40;75.00;;;;;;5105054;28;20059;-66
2022/02/10 23:01:06;;;;;;;6.90;3.60;;;8.50;74.90;;;;;;5094450;28;20081;-66
2022/02/10 23:03:32;;;;;;;5.72;3.75;;;8.50;74.70;;;;;;5095142;28;20067;-66
2022/02/10 23:05:58;;;;;;;5.97;3.40;;;8.40;74.30;;;;;;5096165;28;20063;-66
2022/02/10 23:08:24;;;;;;;8.55;3.92;;;8.40;74.80;;;;;;5096623;28;20043;-66
2022/02/10 23:10:51;;;;;;;7.45;3.63;;;8.40;74.70;;;;;;5090388;28;20024;-66
2022/02/10 23:13:26;;;;;;;6.38;3.55;;;8.40;74.70;;;;;;5093638;28;20110;-66
2022/02/10 23:15:52;;;;;;;4.47;3.25;;;8.30;74.90;;;;;;5095243;28;20072;-67
2022/02/10 23:18:20;;;;;;;4.88;3.35;;;8.30;74.60;;;;;;5095368;28;20058;-67
2022/02/10 23:20:48;;;;;;;5.10;3.30;;;8.30;74.70;;;;;;5097596;28;20495;-67
2022/02/10 23:23:15;;;;;;;5.03;3.30;;;8.30;75.20;;;;;;5089946;28;20032;-66
2022/02/10 23:25:43;;;;;;;4.68;2.95;;;8.30;74.80;;;;;;5095749;28;20536;-66
2022/02/10 23:28:15;;;;;;;4.38;3.10;;;8.30;74.50;;;;;;5094061;28;20480;-66
2022/02/10 23:30:46;;;;;;;6.07;3.25;;;8.30;74.20;;;;;;5094827;28;20089;-66
2022/02/10 23:33:32;;;;;;;6.68;3.15;;;8.30;74.60;;;;;;5095023;28;20061;-66
2022/02/10 23:38:41;;;;;;;6.15;3.65;;;8.20;74.50;;;;;;5093958;28;20028;-66
2022/02/10 23:43:46;;;;;;;5.47;3.05;;;8.20;74.80;;;;;;5105313;28;20114;-66
2022/02/10 23:46:12;;;;;;;4.82;3.45;;;8.20;74.50;;;;;;5095750;28;20036;-66
2022/02/10 23:48:38;;;;;;;6.20;3.33;;;8.30;74.70;;;;;;5094926;28;20024;-66
2022/02/10 23:51:05;;;;;;;7.43;3.40;;;8.20;74.50;;;;;;5094058;28;20031;-66
2022/02/10 23:53:31;;;;;;;6.32;3.45;;;8.20;74.00;;;;;;5093215;28;20504;-66
2022/02/10 23:55:59;;;;;;;4.03;3.10;;;8.10;74.00;;;;;;5091374;28;20024;-65
